Helvetia One — D5AP8 — position and weather

sailwx.info

Track history (hours):
 
Tides and Currents Weather Stations Pressure Air Temp Water Temp Dewpoint Dewpoint Depression Visibility Wind Speed Wind Dir Waves Ship Positions

Helvetia One

Last reported at 2017-Nov-11 00:41 UTC. Time now 2017-Nov-24 16:40 UTC.
Position N 26°17' W 079°24'.
Warning: this ship's position is 13 days out of date.

Length 229 m; draft 13.6 m.

Type: Cargo ship. MMSI: 636015419.

Date/timePositionNaut miles runAvg speedWind from/ knotsBaromVisibWave heightAir tempDewpointWater temp
2017-Nov-11 00:41N 26°17' W 079°24'211.4
2017-Nov-11 00:30N 26°15' W 079°25'2111.6
2017-Nov-10 22:40N 25°54' W 079°28'211.9
2017-Nov-10 22:30N 25°52' W 079°28'811.9
2017-Nov-10 21:51N 25°44' W 079°29'411.9
2017-Nov-10 21:29N 25°40' W 079°30'611.8
2017-Nov-10 21:00N 25°34' W 079°31'612.3
2017-Nov-10 20:30N 25°28' W 079°32'714.4
2017-Nov-10 20:00N 25°21' W 079°33'4011.5
2017-Nov-10 16:32N 24°42' W 079°42'110.7
2017-Nov-10 16:28N 24°42' W 079°43'  
Track history (hours):
 
Tides and Currents Weather Stations Pressure Air Temp Water Temp Dewpoint Dewpoint Depression Visibility Wind Speed Wind Dir Waves Ship Positions

Helvetia One

Last reported at 2017-Nov-11 00:41 UTC. Time now 2017-Nov-24 16:40 UTC.
Position N 26°17' W 079°24'.
Warning: this ship's position is 13 days out of date.

Length 229 m; draft 13.6 m.

Type: Cargo ship. MMSI: 636015419.

Date/timePositionNaut miles runAvg speedWind from/ knotsBaromVisibWave heightAir tempDewpointWater temp
2017-Nov-11 00:41N 26°17' W 079°24'211.4
2017-Nov-11 00:30N 26°15' W 079°25'2111.6
2017-Nov-10 22:40N 25°54' W 079°28'211.9
2017-Nov-10 22:30N 25°52' W 079°28'811.9
2017-Nov-10 21:51N 25°44' W 079°29'411.9
2017-Nov-10 21:29N 25°40' W 079°30'611.8
2017-Nov-10 21:00N 25°34' W 079°31'612.3
2017-Nov-10 20:30N 25°28' W 079°32'714.4
2017-Nov-10 20:00N 25°21' W 079°33'4011.5
2017-Nov-10 16:32N 24°42' W 079°42'110.7
2017-Nov-10 16:28N 24°42' W 079°43'  

Dump ship's entire track history